Ada, Ohio
Current Conditions -  °F | °C
As of 5:53 PM on Saturday 25 Oct 2014 (Local Time) from KAOH Reporting Station
Clear Clear  
Wind Chill: 69°   Ceiling: Unl
Heat Index: 69°   Visibility: 10mi
Dew Point: 39°   Wind: 20mph
Humidity: 33%   Direction: 290°WNW
Pressure: 29.86"   Gusts: 30mph
Location:  40.78°N, 83.82°W
Report Text: KAOH 252153Z AUTO 29017G26KT 10SM CLR 21/04 A2986 RMK AO2 PK WND 28027/2121 SLP109 T02060039
Loading
Personal Weather Stations






























Interactive Weather Map
Tropical Storm Tracking
New forecast layout! Learn more

10-Day Weather Forecast

Advertisements
Track Severe Weather on mobile